Terminal Aerodrome Forecast
Issued by NWS Twin Cities, MN

Home | Current Version | Previous Version | Graphics & Text | Print | Product List | Glossary On
Versions: 1 2 3 4 5 6 7 8 9 10 11 12 13 14 15 16 17 18
000
FTUS43 KMPX 202300
TAFEAU
TAF
KEAU 202333Z 2100/2124 16006KT 6SM BR OVC012
     FM210600 15006KT 4SM BR OVC008
     FM211300 15007KT 4SM -DZ BR OVC008
     FM211700 16010KT 6SM BR OVC014=

USA.gov is the U.S. government's official web portal to all federal, state and local government web resources and services.